Time;durP1;ratioP1;P1;durP2;ratioP2;P2;SDS_P1;SDS_P2;PMS_P1;PMS_P2;Temp;Humidity;BMP_temperature;BMP_pressure;BME280_temperature;BME280_humidity;BME280_pressure;Samples;Min_cycle;Max_cycle;Signal;HPM_P1;HPM_P2
2021/06/27 00:00:29;;;;;;;;;;;;;;;28.79;44.79;99907.11;1833856;78;20089;-77
2021/06/27 00:02:55;;;;;;;;;;;;;;;28.78;44.88;99901.34;1834114;78;20169;-77
2021/06/27 00:05:24;;;;;;;;;;;;;;;28.78;44.64;99907.41;1833914;78;20354;-77
2021/06/27 00:07:51;;;;;;;;;;;;;;;28.75;44.64;99908.84;1834033;78;20178;-77
2021/06/27 00:10:23;;;;;;;;;;;;;;;28.76;44.62;99906.34;1833762;78;20126;-77
2021/06/27 00:12:49;;;;;;;;;;;;;;;28.74;44.63;99903.04;1834008;78;20077;-77
2021/06/27 00:15:20;;;;;;;;;;;;;;;28.75;44.73;99899.72;1833711;78;20138;-77
2021/06/27 00:17:46;;;;;;;;;;;;;;;28.74;44.78;99895.33;1834087;78;20439;-77
2021/06/27 00:20:16;;;;;;;;;;;;;;;28.72;44.72;99887.92;1833915;78;20137;-77
2021/06/27 00:22:43;;;;;;;;;;;;;;;28.71;44.78;99883.53;1833977;78;20608;-77
2021/06/27 00:25:10;;;;;;;;;;;;;;;28.69;44.94;99876.91;1833656;78;20162;-77
2021/06/27 00:27:39;;;;;;;;;;;;;;;28.68;44.90;99883.55;1834030;78;20153;-77
2021/06/27 00:30:06;;;;;;;;;;;;;;;28.67;44.82;99876.40;1833715;78;20133;-76
2021/06/27 00:32:32;;;;;;;;;;;;;;;28.70;44.83;99885.44;1834006;78;20133;-76
2021/06/27 00:34:57;;;;;;;;;;;;;;;28.70;44.78;99886.81;1833455;78;20203;-76
2021/06/27 00:37:23;;;;;;;;;;;;;;;28.71;44.72;99889.86;1832478;78;20176;-76
2021/06/27 00:39:50;;;;;;;;;;;;;;;28.72;44.34;99892.88;1832332;78;20164;-77
2021/06/27 00:42:16;;;;;;;;;;;;;;;28.74;44.18;99894.77;1834230;78;20120;-77
2021/06/27 00:44:42;;;;;;;;;;;;;;;28.74;44.12;99899.47;1833561;78;20164;-78
2021/06/27 00:47:09;;;;;;;;;;;;;;;28.75;44.16;99906.09;1833526;78;20134;-77
2021/06/27 00:49:35;;;;;;;;;;;;;;;28.76;44.18;99908.28;1833756;78;20390;-77
2021/06/27 00:52:01;;;;;;;;;;;;;;;28.76;44.23;99911.85;1834256;78;20254;-78
2021/06/27 00:54:26;;;;;;;;;;;;;;;28.77;44.26;99917.63;1833986;78;20623;-78
2021/06/27 00:56:54;;;;;;;;;;;;;;;28.78;44.27;99917.87;1834000;78;20172;-77
2021/06/27 00:59:20;;;;;;;;;;;;;;;28.78;44.18;99912.38;1834264;78;20160;-78
2021/06/27 01:01:46;;;;;;;;;;;;;;;28.79;43.92;99910.43;1833853;78;20147;-78
2021/06/27 01:04:13;;;;;;;;;;;;;;;28.75;43.92;99906.61;1833957;78;20129;-78
2021/06/27 01:06:40;;;;;;;;;;;;;;;28.70;43.88;99914.38;1833941;78;20493;-77
2021/06/27 01:09:06;;;;;;;;;;;;;;;28.68;43.96;99919.38;1833335;78;20168;-77
2021/06/27 01:11:32;;;;;;;;;;;;;;;28.65;44.05;99925.46;1833535;78;20337;-77
2021/06/27 01:14:01;;;;;;;;;;;;;;;28.68;44.14;99926.83;1833501;78;20153;-77
2021/06/27 01:16:27;;;;;;;;;;;;;;;28.68;43.96;99931.78;1833604;78;20130;-78
2021/06/27 01:18:53;;;;;;;;;;;;;;;28.68;43.94;99940.05;1833887;78;20139;-78
2021/06/27 01:21:20;;;;;;;;;;;;;;;28.68;43.82;99933.16;1833686;78;20169;-77
2021/06/27 01:23:46;;;;;;;;;;;;;;;28.69;43.93;99933.97;1833560;78;20203;-77
2021/06/27 01:26:11;;;;;;;;;;;;;;;28.67;43.95;99926.01;1833684;78;20180;-77
2021/06/27 01:28:39;;;;;;;;;;;;;;;28.68;44.01;99920.75;1833437;78;20125;-77
2021/06/27 01:31:05;;;;;;;;;;;;;;;28.68;44.02;99919.38;1833683;78;20176;-77
2021/06/27 01:33:31;;;;;;;;;;;;;;;28.68;43.93;99927.64;1833624;78;20153;-76
2021/06/27 01:35:57;;;;;;;;;;;;;;;28.66;43.89;99912.50;1833639;78;20161;-76
2021/06/27 01:38:23;;;;;;;;;;;;;;;28.65;43.91;99905.35;1833411;78;20191;-77
2021/06/27 01:40:51;;;;;;;;;;;;;;;28.65;43.95;99906.17;1833584;78;20139;-77
2021/06/27 01:43:19;;;;;;;;;;;;;;;28.64;44.03;99906.47;1833658;78;20116;-77
2021/06/27 01:45:48;;;;;;;;;;;;;;;28.63;44.04;99904.84;1833603;78;20181;-76
2021/06/27 01:48:14;;;;;;;;;;;;;;;28.64;44.00;99905.09;1833488;78;20141;-76
2021/06/27 01:50:42;;;;;;;;;;;;;;;28.58;44.18;99902.95;1833601;78;20434;-76
2021/06/27 01:53:10;;;;;;;;;;;;;;;28.58;44.30;99906.27;1834115;78;20121;-77
2021/06/27 01:55:36;;;;;;;;;;;;;;;28.58;44.20;99907.08;1833662;78;20134;-77
2021/06/27 01:58:02;;;;;;;;;;;;;;;28.58;44.26;99909.84;1833563;78;20140;-77
2021/06/27 02:00:29;;;;;;;;;;;;;;;28.60;44.22;99910.36;1832708;78;20247;-77
2021/06/27 02:02:55;;;;;;;;;;;;;;;28.61;44.24;99909.23;1833086;78;20126;-77
2021/06/27 02:05:21;;;;;;;;;;;;;;;28.63;44.20;99908.97;1832791;78;20141;-77
2021/06/27 02:07:47;;;;;;;;;;;;;;;28.63;44.12;99910.34;1824683;78;20394;-78
2021/06/27 02:10:19;;;;;;;;;;;;;;;28.65;44.08;99910.30;1805007;79;20180;-77
2021/06/27 02:12:45;;;;;;;;;;;;;;;28.66;44.08;99914.72;1805322;79;20279;-77
2021/06/27 02:15:12;;;;;;;;;;;;;;;28.62;44.11;99926.06;1805121;79;20457;-77
2021/06/27 02:17:40;;;;;;;;;;;;;;;28.60;44.15;99921.38;1804980;79;20421;-77
2021/06/27 02:20:09;;;;;;;;;;;;;;;28.59;44.15;99926.63;1780551;79;20139;-77
2021/06/27 02:22:35;;;;;;;;;;;;;;;28.58;44.28;99933.82;1804946;79;20159;-77
2021/06/27 02:25:01;;;;;;;;;;;;;;;28.56;44.35;99936.29;1804841;78;20392;-77
2021/06/27 02:27:27;;;;;;;;;;;;;;;28.57;44.45;99937.14;1804405;79;20174;-77
2021/06/27 02:29:53;;;;;;;;;;;;;;;28.58;44.46;99945.66;1805039;79;20241;-77
2021/06/27 02:32:18;;;;;;;;;;;;;;;28.59;44.55;99956.13;1805290;79;20126;-77
2021/06/27 02:34:44;;;;;;;;;;;;;;;28.59;44.46;99950.61;1806259;79;20159;-77
2021/06/27 02:37:11;;;;;;;;;;;;;;;28.59;44.54;99949.23;1806030;79;20136;-77
2021/06/27 02:39:38;;;;;;;;;;;;;;;28.60;44.54;99950.88;1805924;79;20232;-77
2021/06/27 02:42:05;;;;;;;;;;;;;;;28.60;44.55;99952.25;1805841;79;20120;-76
2021/06/27 02:44:32;;;;;;;;;;;;;;;28.60;44.54;99957.20;1805435;79;20447;-77
2021/06/27 02:46:58;;;;;;;;;;;;;;;28.60;44.52;99956.39;1804638;79;20170;-77
2021/06/27 02:49:25;;;;;;;;;;;;;;;28.59;44.33;99954.19;1804564;79;20445;-78
2021/06/27 02:51:51;;;;;;;;;;;;;;;28.58;44.20;99944.28;1804496;79;20167;-77
2021/06/27 02:54:18;;;;;;;;;;;;;;;28.58;44.20;99941.53;1805626;79;20146;-77
2021/06/27 02:56:44;;;;;;;;;;;;;;;28.58;44.26;99938.77;1805410;79;20127;-77
2021/06/27 02:59:10;;;;;;;;;;;;;;;28.59;44.23;99935.45;1804843;79;20171;-77
2021/06/27 03:01:36;;;;;;;;;;;;;;;28.59;44.24;99941.79;1804838;79;20448;-77
2021/06/27 03:04:03;;;;;;;;;;;;;;;28.60;44.21;99931.02;1803592;79;20198;-76
2021/06/27 03:06:29;;;;;;;;;;;;;;;28.63;44.12;99929.64;1803705;79;20185;-78
2021/06/27 03:08:55;;;;;;;;;;;;;;;28.65;44.06;99936.48;1803343;79;20135;-78
2021/06/27 03:11:21;;;;;;;;;;;;;;;28.65;44.10;99941.99;1803464;79;20150;-76
2021/06/27 03:13:47;;;;;;;;;;;;;;;28.68;44.16;99936.47;1804243;79;20264;-76
2021/06/27 03:16:13;;;;;;;;;;;;;;;28.70;44.19;99930.09;1804689;79;20229;-76
2021/06/27 03:18:39;;;;;;;;;;;;;;;28.69;44.08;99923.77;1805028;79;20173;-76
2021/06/27 03:21:05;;;;;;;;;;;;;;;28.70;44.08;99918.52;1806196;79;20132;-77
2021/06/27 03:23:32;;;;;;;;;;;;;;;28.70;44.00;99919.89;1806162;79;20416;-77
2021/06/27 03:25:59;;;;;;;;;;;;;;;28.74;44.04;99918.20;1806326;78;20799;-77
2021/06/27 03:28:27;;;;;;;;;;;;;;;28.77;44.10;99920.94;1806157;79;20216;-77
2021/06/27 03:30:53;;;;;;;;;;;;;;;28.82;44.02;99923.64;1806252;79;20388;-77
2021/06/27 03:33:19;;;;;;;;;;;;;;;28.79;44.01;99925.03;1805197;79;20229;-77
2021/06/27 03:35:45;;;;;;;;;;;;;;;28.78;43.84;99923.39;1806403;79;20193;-78
2021/06/27 03:38:32;;;;;;;;;;;;;;;28.80;43.93;99925.87;1806092;79;20160;-78
2021/06/27 03:40:52;;;;;;;;;;;;;;;28.90;43.94;99924.95;1804762;79;20120;-77
2021/06/27 03:43:18;;;;;;;;;;;;;;;28.82;44.01;99925.02;1805363;79;20139;-78
2021/06/27 03:45:44;;;;;;;;;;;;;;;28.81;43.88;99922.82;1806313;79;20393;-78
2021/06/27 03:48:10;;;;;;;;;;;;;;;28.79;43.76;99919.52;1806215;79;20167;-77
2021/06/27 03:50:36;;;;;;;;;;;;;;;28.80;43.82;99924.50;1804918;79;20217;-77
2021/06/27 03:53:02;;;;;;;;;;;;;;;28.79;43.68;99922.84;1804345;79;20178;-77
2021/06/27 03:55:30;;;;;;;;;;;;;;;28.79;43.74;99927.78;1805427;79;20171;-78
2021/06/27 03:57:57;;;;;;;;;;;;;;;28.79;43.97;99919.52;1804764;79;20178;-77
2021/06/27 04:00:23;;;;;;;;;;;;;;;28.82;44.32;99923.08;1804600;79;20163;-78
2021/06/27 04:02:49;;;;;;;;;;;;;;;28.82;44.66;99926.39;1804546;79;20437;-78
2021/06/27 04:05:15;;;;;;;;;;;;;;;28.81;44.80;99927.52;1804723;79;20151;-78
2021/06/27 04:07:42;;;;;;;;;;;;;;;28.83;45.10;99934.36;1806466;79;20123;-79
2021/06/27 04:10:08;;;;;;;;;;;;;;;28.86;45.31;99937.66;1806141;79;20716;-78
2021/06/27 04:12:34;;;;;;;;;;;;;;;28.88;45.62;99931.29;1806861;79;20136;-78
2021/06/27 04:15:00;;;;;;;;;;;;;;;28.92;45.69;99922.70;1780033;79;20182;-78
2021/06/27 04:17:26;;;;;;;;;;;;;;;28.94;45.82;99927.38;1806682;79;20160;-78
2021/06/27 04:19:52;;;;;;;;;;;;;;;28.99;46.02;99925.97;1806555;79;20153;-78
2021/06/27 04:22:18;;;;;;;;;;;;;;;29.06;46.24;99924.48;1806534;79;20173;-78
2021/06/27 04:24:44;;;;;;;;;;;;;;;29.16;46.27;99925.48;1806312;79;20179;-78
2021/06/27 04:27:11;;;;;;;;;;;;;;;29.24;46.31;99912.42;1806429;78;20136;-78
2021/06/27 04:29:37;;;;;;;;;;;;;;;29.32;46.21;99922.23;1806431;79;20136;-78
2021/06/27 04:32:04;;;;;;;;;;;;;;;29.42;46.03;99927.36;1806445;79;20276;-78
2021/06/27 04:34:31;;;;;;;;;;;;;;;29.49;45.67;99926.45;1806530;79;20167;-79
2021/06/27 04:36:57;;;;;;;;;;;;;;;29.54;45.29;99930.52;1806278;79;20140;-79
2021/06/27 04:39:23;;;;;;;;;;;;;;;29.59;45.03;99927.72;1805602;79;20158;-78
2021/06/27 04:41:50;;;;;;;;;;;;;;;29.64;44.57;99928.20;1804815;79;20166;-78
2021/06/27 04:44:17;;;;;;;;;;;;;;;29.67;44.02;99928.43;1804203;79;20152;-78
2021/06/27 04:46:43;;;;;;;;;;;;;;;29.70;43.92;99936.66;1774928;81;20166;-78
2021/06/27 04:49:09;;;;;;;;;;;;;;;29.72;43.74;99942.72;1774691;81;20166;-78
2021/06/27 04:51:35;;;;;;;;;;;;;;;29.72;43.55;99949.63;1741871;82;20144;-78
2021/06/27 04:54:01;;;;;;;;;;;;;;;29.74;43.38;99950.95;1774612;81;20253;-79
2021/06/27 04:56:27;;;;;;;;;;;;;;;29.76;43.33;99947.91;1773116;81;20213;-79
2021/06/27 04:58:55;;;;;;;;;;;;;;;29.81;43.19;99936.22;1805387;79;20175;-78
2021/06/27 05:01:23;;;;;;;;;;;;;;;29.77;43.25;99930.22;1805246;79;20332;-78
2021/06/27 05:03:48;;;;;;;;;;;;;;;29.78;43.13;99926.33;1806337;79;20244;-78
2021/06/27 05:06:14;;;;;;;;;;;;;;;29.77;43.22;99915.03;1806279;79;20314;-79
2021/06/27 05:08:41;;;;;;;;;;;;;;;29.77;43.26;99908.13;1804230;79;20581;-79
2021/06/27 05:11:06;;;;;;;;;;;;;;;29.78;43.38;99909.20;1804715;79;20414;-79
2021/06/27 05:13:32;;;;;;;;;;;;;;;29.80;43.51;99919.41;1805233;79;20244;-78
2021/06/27 05:15:58;;;;;;;;;;;;;;;29.82;43.55;99924.62;1804701;79;20229;-77
2021/06/27 05:18:25;;;;;;;;;;;;;;;29.82;43.61;99940.62;1804864;79;20159;-78
2021/06/27 05:20:51;;;;;;;;;;;;;;;29.81;43.47;99945.07;1804376;79;20447;-78
2021/06/27 05:23:17;;;;;;;;;;;;;;;29.81;43.43;99955.55;1804887;79;20167;-78
2021/06/27 05:25:43;;;;;;;;;;;;;;;29.78;43.24;99956.70;1804541;78;20189;-78
2021/06/27 05:28:09;;;;;;;;;;;;;;;29.71;43.22;99943.28;1804311;79;20232;-78
2021/06/27 05:30:35;;;;;;;;;;;;;;;29.63;43.24;99938.42;1802956;79;20159;-78
2021/06/27 05:33:01;;;;;;;;;;;;;;;29.55;43.50;99940.46;1803509;79;20415;-77
2021/06/27 05:35:27;;;;;;;;;;;;;;;29.50;43.52;99948.22;1803152;79;20233;-77
2021/06/27 05:37:54;;;;;;;;;;;;;;;29.43;43.66;99942.80;1805272;78;20143;-77
2021/06/27 05:40:20;;;;;;;;;;;;;;;29.38;43.77;99933.20;1801893;78;20177;-77
2021/06/27 05:42:48;;;;;;;;;;;;;;;29.31;43.86;99921.98;1804265;79;20164;-77
2021/06/27 05:45:14;;;;;;;;;;;;;;;29.28;44.05;99913.47;1774654;81;20412;-77
2021/06/27 05:47:40;;;;;;;;;;;;;;;29.22;44.25;99900.88;1772409;81;20165;-77
2021/06/27 05:50:06;;;;;;;;;;;;;;;29.18;44.42;99902.02;1805107;79;20760;-78
2021/06/27 05:52:32;;;;;;;;;;;;;;;29.15;44.66;99898.45;1805009;79;20159;-77
2021/06/27 05:54:58;;;;;;;;;;;;;;;29.15;44.95;99901.22;1804717;79;20213;-77
2021/06/27 05:57:24;;;;;;;;;;;;;;;29.15;45.21;99907.30;1803413;78;20257;-77
2021/06/27 05:59:50;;;;;;;;;;;;;;;29.13;45.46;99906.22;1802617;78;20167;-77
2021/06/27 06:02:16;;;;;;;;;;;;;;;29.12;45.57;99898.25;1801019;79;20183;-77
2021/06/27 06:04:42;;;;;;;;;;;;;;;29.09;45.67;99900.21;1801057;79;20170;-77
2021/06/27 06:07:08;;;;;;;;;;;;;;;29.06;45.87;99899.66;1801198;79;20185;-77
2021/06/27 06:09:34;;;;;;;;;;;;;;;29.03;46.00;99898.89;1800407;79;20171;-77
2021/06/27 06:12:00;;;;;;;;;;;;;;;29.02;46.23;99886.23;1800187;79;20166;-78
2021/06/27 06:14:26;;;;;;;;;;;;;;;29.00;46.34;99877.41;1801641;79;20277;-78
2021/06/27 06:16:52;;;;;;;;;;;;;;;28.96;46.44;99876.92;1802705;79;20198;-78
2021/06/27 06:19:19;;;;;;;;;;;;;;;28.92;46.68;99879.41;1802277;79;20257;-78
2021/06/27 06:21:46;;;;;;;;;;;;;;;28.93;46.89;99876.09;1802912;79;20510;-77
2021/06/27 06:24:12;;;;;;;;;;;;;;;28.88;47.65;99866.50;1804595;79;20128;-78
2021/06/27 06:26:38;;;;;;;;;;;;;;;28.86;48.26;99879.77;1803817;79;20170;-79
2021/06/27 06:29:04;;;;;;;;;;;;;;;28.87;48.57;99882.79;1803595;79;20851;-78
2021/06/27 06:31:31;;;;;;;;;;;;;;;28.87;48.87;99893.25;1804172;79;20452;-78
2021/06/27 06:33:57;;;;;;;;;;;;;;;28.85;49.39;99898.81;1804348;79;20169;-78
2021/06/27 06:36:23;;;;;;;;;;;;;;;28.83;49.73;99909.55;1805238;79;20144;-78
2021/06/27 06:38:49;;;;;;;;;;;;;;;28.87;49.76;99905.66;1822209;78;20152;-77
2021/06/27 06:41:18;;;;;;;;;;;;;;;28.89;49.35;99886.06;1836917;78;20804;-78
2021/06/27 06:43:45;;;;;;;;;;;;;;;28.87;49.47;99873.95;1837010;78;20440;-78
2021/06/27 06:46:11;;;;;;;;;;;;;;;28.87;49.88;99880.03;1838653;78;20199;-78
2021/06/27 06:48:38;;;;;;;;;;;;;;;28.82;50.05;99887.24;1839172;78;20153;-78
2021/06/27 06:51:05;;;;;;;;;;;;;;;28.83;50.00;99895.77;1839422;78;20153;-77
2021/06/27 06:53:32;;;;;;;;;;;;;;;28.84;49.77;99889.70;1839491;78;20125;-79
2021/06/27 06:55:58;;;;;;;;;;;;;;;28.87;50.02;99877.27;1839350;78;20210;-78
2021/06/27 06:58:28;;;;;;;;;;;;;;;28.87;50.12;99867.06;1839389;78;20449;-78
2021/06/27 07:00:53;;;;;;;;;;;;;;;28.90;50.23;99861.53;1837503;78;20196;-79
2021/06/27 07:03:19;;;;;;;;;;;;;;;28.92;50.17;99859.29;1838547;78;20214;-79
2021/06/27 07:05:45;;;;;;;;;;;;;;;28.91;50.25;99854.34;1817047;78;20424;-78
2021/06/27 07:08:12;;;;;;;;;;;;;;;28.93;50.26;99856.79;1799782;79;20419;-78
2021/06/27 07:10:39;;;;;;;;;;;;;;;28.93;50.04;99867.26;1801390;79;20179;-77
2021/06/27 07:13:05;;;;;;;;;;;;;;;28.94;49.97;99879.13;1801401;79;20424;-78
2021/06/27 07:15:31;;;;;;;;;;;;;;;28.92;50.34;99885.48;1801494;78;20214;-77
2021/06/27 07:17:57;;;;;;;;;;;;;;;28.92;50.80;99888.23;1800538;79;20225;-78
2021/06/27 07:20:25;;;;;;;;;;;;;;;28.92;51.28;99896.51;1799810;79;20162;-76
2021/06/27 07:22:51;;;;;;;;;;;;;;;28.95;51.13;99895.41;1800587;79;20373;-77
2021/06/27 07:25:17;;;;;;;;;;;;;;;28.95;51.30;99883.52;1802672;79;20166;-77
2021/06/27 07:27:43;;;;;;;;;;;;;;;28.96;51.42;99874.16;1804320;78;20260;-77
2021/06/27 07:30:10;;;;;;;;;;;;;;;28.98;51.13;99862.30;1802390;78;20198;-77
2021/06/27 07:32:36;;;;;;;;;;;;;;;28.97;51.09;99854.56;1802924;79;20226;-77
2021/06/27 07:35:04;;;;;;;;;;;;;;;28.97;51.12;99860.07;1803707;79;20172;-77
2021/06/27 07:37:29;;;;;;;;;;;;;;;28.98;51.20;99867.81;1803724;79;20175;-79
2021/06/27 07:39:55;;;;;;;;;;;;;;;28.99;51.24;99870.83;1804633;78;20205;-78
2021/06/27 07:42:21;;;;;;;;;;;;;;;29.02;51.56;99867.45;1804599;79;21055;-78
2021/06/27 07:44:47;;;;;;;;;;;;;;;29.05;51.54;99869.08;1804797;79;20153;-78
2021/06/27 07:47:13;;;;;;;;;;;;;;;29.09;51.37;99870.69;1804545;79;20213;-78
2021/06/27 07:49:39;;;;;;;;;;;;;;;29.14;51.94;99860.16;1803673;79;20175;-78
2021/06/27 07:52:07;;;;;;;;;;;;;;;29.18;51.97;99860.64;1803311;79;20111;-78
2021/06/27 07:54:34;;;;;;;;;;;;;;;29.24;52.02;99866.34;1802999;79;20225;-78
2021/06/27 07:57:01;;;;;;;;;;;;;;;29.32;52.45;99867.06;1802937;79;20163;-79
2021/06/27 07:59:27;;;;;;;;;;;;;;;29.45;52.48;99872.97;1802507;79;20484;-78
2021/06/27 08:01:53;;;;;;;;;;;;;;;29.55;51.67;99862.63;1802954;79;20233;-77
2021/06/27 08:04:19;;;;;;;;;;;;;;;29.62;51.27;99859.51;1802445;79;20511;-77
2021/06/27 08:06:45;;;;;;;;;;;;;;;29.67;50.97;99867.70;1802242;79;20143;-78
2021/06/27 08:09:11;;;;;;;;;;;;;;;29.71;50.71;99879.80;1799998;78;20819;-77
2021/06/27 08:11:37;;;;;;;;;;;;;;;29.76;50.57;99878.33;1800044;79;20566;-78
2021/06/27 08:14:04;;;;;;;;;;;;;;;29.81;50.57;99879.63;1800477;79;20165;-78
2021/06/27 08:16:30;;;;;;;;;;;;;;;29.87;50.51;99890.02;1800996;79;20189;-77
2021/06/27 08:18:55;;;;;;;;;;;;;;;29.92;50.45;99896.02;1776204;79;20138;-77
2021/06/27 08:21:21;;;;;;;;;;;;;;;29.96;50.23;99897.88;1800879;79;20154;-77
2021/06/27 08:23:47;;;;;;;;;;;;;;;29.95;50.06;99894.87;1801023;79;20166;-78
2021/06/27 08:26:13;;;;;;;;;;;;;;;29.90;49.75;99888.05;1801379;79;20244;-77
2021/06/27 08:28:39;;;;;;;;;;;;;;;29.87;49.87;99891.41;1770478;81;20266;-78
2021/06/27 08:31:06;;;;;;;;;;;;;;;29.88;50.21;99896.36;1799709;79;20140;-78
2021/06/27 08:33:32;;;;;;;;;;;;;;;29.91;50.33;99908.20;1801296;79;20144;-78
2021/06/27 08:35:59;;;;;;;;;;;;;;;29.96;50.35;99909.50;1800156;79;20440;-78
2021/06/27 08:38:25;;;;;;;;;;;;;;;30.01;50.08;99919.08;1800357;79;20253;-78
2021/06/27 08:40:54;;;;;;;;;;;;;;;30.11;50.00;99927.19;1800122;79;20187;-78
2021/06/27 08:43:20;;;;;;;;;;;;;;;30.20;49.62;99920.45;1800141;79;20608;-78
2021/06/27 08:45:51;;;;;;;;;;;;;;;30.30;49.26;99928.03;1801465;79;20190;-79
2021/06/27 08:48:20;;;;;;;;;;;;;;;30.36;48.94;99933.47;1800772;79;20170;-78
2021/06/27 08:50:47;;;;;;;;;;;;;;;30.40;49.03;99933.94;1799929;79;20481;-77
2021/06/27 08:53:14;;;;;;;;;;;;;;;30.61;48.83;99933.00;1800248;79;20154;-78
2021/06/27 08:55:41;;;;;;;;;;;;;;;30.50;49.36;99919.12;1799217;79;20445;-78
2021/06/27 08:58:09;;;;;;;;;;;;;;;30.55;49.28;99914.31;1798282;79;20135;-78
2021/06/27 09:00:36;;;;;;;;;;;;;;;30.60;48.69;99917.55;1798045;79;20294;-78
2021/06/27 09:03:07;;;;;;;;;;;;;;;30.63;48.24;99911.41;1801261;79;20137;-78
2021/06/27 09:05:39;;;;;;;;;;;;;;;30.66;48.46;99905.28;1803164;79;20149;-77
2021/06/27 09:08:15;;;;;;;;;;;;;;;30.72;48.45;99906.84;1814427;79;20145;-78
2021/06/27 09:10:43;;;;;;;;;;;;;;;30.78;48.17;99911.71;1802759;79;20165;-78
2021/06/27 09:13:09;;;;;;;;;;;;;;;30.87;48.32;99911.82;1769176;81;20218;-77
2021/06/27 09:15:40;;;;;;;;;;;;;;;30.93;48.39;99910.05;1799907;79;20163;-77
2021/06/27 09:18:16;;;;;;;;;;;;;;;31.00;48.45;99922.89;1800406;79;20147;-78
2021/06/27 09:20:48;;;;;;;;;;;;;;;31.06;48.03;99925.80;1798062;79;20140;-78
2021/06/27 09:23:16;;;;;;;;;;;;;;;31.12;47.85;99934.02;1769954;81;20215;-78
2021/06/27 09:25:42;;;;;;;;;;;;;;;31.17;48.04;99940.27;1801232;79;20132;-78
2021/06/27 09:28:14;;;;;;;;;;;;;;;31.21;47.31;99935.75;1801368;78;20143;-78
2021/06/27 09:30:52;;;;;;;;;;;;;;;31.29;46.87;99941.95;1801495;79;20385;-77
2021/06/27 09:33:23;;;;;;;;;;;;;;;31.33;46.71;99941.59;1805127;78;20159;-77
2021/06/27 09:35:53;;;;;;;;;;;;;;;31.38;46.66;99948.16;1823932;78;20169;-78
2021/06/27 09:38:23;;;;;;;;;;;;;;;31.41;46.76;99956.66;1828079;78;20088;-77
2021/06/27 09:40:51;;;;;;;;;;;;;;;31.42;46.92;99954.14;1818996;78;20184;-77
2021/06/27 09:43:18;;;;;;;;;;;;;;;31.43;46.75;99964.66;1822219;78;20178;-77
2021/06/27 09:45:54;;;;;;;;;;;;;;;31.42;46.51;99970.75;1809707;78;20212;-78
2021/06/27 09:48:20;;;;;;;;;;;;;;;31.51;46.25;99977.77;1809809;78;20202;-77
2021/06/27 09:50:46;;;;;;;;;;;;;;;31.51;46.37;99975.81;1799406;79;20496;-79
2021/06/27 09:53:35;;;;;;;;;;;;;;;31.50;46.36;99978.34;1798439;79;20206;-78
2021/06/27 09:56:01;;;;;;;;;;;;;;;31.53;46.09;99978.30;1799281;79;20385;-77
2021/06/27 09:58:27;;;;;;;;;;;;;;;31.52;46.33;99989.09;1770189;79;20188;-78
2021/06/27 10:00:53;;;;;;;;;;;;;;;31.52;46.10;99986.33;1799430;79;20138;-78
2021/06/27 10:03:19;;;;;;;;;;;;;;;31.51;45.92;99979.97;1799404;79;21098;-78
2021/06/27 10:05:47;;;;;;;;;;;;;;;31.55;45.96;99987.91;1800458;79;20114;-77
2021/06/27 10:08:29;;;;;;;;;;;;;;;31.57;46.00;99991.78;1776706;79;20143;-78
2021/06/27 10:11:15;;;;;;;;;;;;;;;31.61;45.58;99992.77;1800606;79;20170;-78
2021/06/27 10:13:46;;;;;;;;;;;;;;;31.62;45.40;99990.28;1800436;79;20167;-79
2021/06/27 10:16:26;;;;;;;;;;;;;;;31.65;45.29;99985.48;1771221;81;20223;-78
2021/06/27 10:18:55;;;;;;;;;;;;;;;31.68;44.95;99988.22;1801145;79;20822;-77
2021/06/27 10:21:22;;;;;;;;;;;;;;;31.72;44.40;99989.23;1771483;81;20228;-77
2021/06/27 10:23:48;;;;;;;;;;;;;;;31.73;44.67;99983.38;1800447;79;20174;-78
2021/06/27 10:26:15;;;;;;;;;;;;;;;31.75;44.85;99981.13;1800993;79;20511;-78
2021/06/27 10:28:42;;;;;;;;;;;;;;;31.80;44.95;99988.51;1770869;81;20532;-77
2021/06/27 10:31:15;;;;;;;;;;;;;;;31.82;44.81;99977.92;1816834;78;20287;-77
2021/06/27 10:33:39;;;;;;;;;;;;;;;31.85;44.27;99982.88;1803388;78;20182;-78
2021/06/27 10:36:05;;;;;;;;;;;;;;;31.86;44.38;99985.08;1804312;79;20441;-77
2021/06/27 10:38:31;;;;;;;;;;;;;;;31.89;44.53;99986.67;1804942;79;20221;-77
2021/06/27 10:40:59;;;;;;;;;;;;;;;31.89;44.45;99985.85;1803867;79;20151;-77
2021/06/27 10:43:27;;;;;;;;;;;;;;;31.86;44.03;99986.47;1802873;79;20500;-78
2021/06/27 10:45:57;;;;;;;;;;;;;;;31.85;44.34;99984.84;1777862;79;20264;-78
2021/06/27 10:48:36;;;;;;;;;;;;;;;31.87;44.35;99986.72;1802744;79;20176;-78
2021/06/27 10:51:08;;;;;;;;;;;;;;;31.87;44.56;99983.38;1802581;79;20562;-78
2021/06/27 10:54:11;;;;;;;;;;;;;;;31.92;44.55;99974.95;1804201;79;20162;-78
2021/06/27 10:57:05;;;;;;;;;;;;;;;31.94;44.04;99976.04;1772451;81;20146;-78
2021/06/27 10:59:40;;;;;;;;;;;;;;;31.95;44.17;99974.90;1773213;81;20158;-78
2021/06/27 11:02:20;;;;;;;;;;;;;;;31.97;44.26;99971.23;1772533;81;20138;-77
2021/06/27 11:04:47;;;;;;;;;;;;;;;31.98;44.23;99976.48;1772814;81;20133;-78
2021/06/27 11:07:36;;;;;;;;;;;;;;;31.98;44.04;99975.67;1774025;81;20161;-77
2021/06/27 11:10:21;;;;;;;;;;;;;;;31.96;43.94;99973.19;1778363;79;20186;-77
2021/06/27 11:13:00;;;;;;;;;;;;;;;31.94;43.94;99974.66;1804615;79;20198;-77
2021/06/27 11:15:33;;;;;;;;;;;;;;;31.93;44.10;99972.99;1803633;79;20177;-78
2021/06/27 11:18:00;;;;;;;;;;;;;;;31.89;44.05;99967.28;1802724;79;20446;-77
2021/06/27 11:20:30;;;;;;;;;;;;;;;31.88;44.07;99967.58;1804482;79;20418;-78
2021/06/27 11:22:58;;;;;;;;;;;;;;;31.87;43.92;99962.60;1802745;78;20156;-77
2021/06/27 11:25:41;;;;;;;;;;;;;;;31.89;44.08;99956.77;1803593;79;20162;-77
2021/06/27 11:28:20;;;;;;;;;;;;;;;31.90;44.12;99965.33;1804305;79;20143;-77
2021/06/27 11:30:50;;;;;;;;;;;;;;;31.90;44.25;99958.41;1799992;79;20183;-77
2021/06/27 11:33:20;;;;;;;;;;;;;;;31.93;44.19;99954.45;1804372;79;20178;-77
2021/06/27 11:35:50;;;;;;;;;;;;;;;31.92;44.13;99954.74;1805860;79;20139;-77
2021/06/27 11:38:38;;;;;;;;;;;;;;;31.82;44.33;99953.84;1803316;79;20158;-78
2021/06/27 11:41:11;;;;;;;;;;;;;;;31.80;44.36;99955.27;1804505;78;20183;-78
2021/06/27 11:44:02;;;;;;;;;;;;;;;31.75;44.29;99951.21;1782231;79;20532;-77
2021/06/27 11:46:36;;;;;;;;;;;;;;;31.70;44.33;99948.56;1799662;79;20466;-77
2021/06/27 11:49:09;;;;;;;;;;;;;;;31.58;44.51;99951.88;1799363;79;20171;-78
2021/06/27 11:51:37;;;;;;;;;;;;;;;31.63;44.51;99950.38;1768506;81;20192;-78
2021/06/27 11:54:04;;;;;;;;;;;;;;;31.65;44.63;99960.56;1798220;79;20158;-77
2021/06/27 11:56:50;;;;;;;;;;;;;;;31.63;44.97;99955.92;1797879;78;20460;-78
2021/06/27 11:59:17;;;;;;;;;;;;;;;31.63;44.88;99950.38;1784031;79;20136;-78
2021/06/27 12:01:43;;;;;;;;;;;;;;;31.63;44.97;99949.56;1802190;79;20214;-78
2021/06/27 12:04:09;;;;;;;;;;;;;;;31.64;45.33;99946.48;1775019;79;20625;-77
2021/06/27 12:06:36;;;;;;;;;;;;;;;31.62;45.19;99942.40;1800828;79;20128;-78
2021/06/27 12:09:04;;;;;;;;;;;;;;;31.63;44.70;99949.00;1803421;79;20158;-78
2021/06/27 12:11:30;;;;;;;;;;;;;;;31.61;44.77;99947.09;1805253;79;20145;-78
2021/06/27 12:13:57;;;;;;;;;;;;;;;31.49;44.83;99951.80;1805104;79;20173;-78
2021/06/27 12:16:31;;;;;;;;;;;;;;;31.49;44.83;99946.83;1804814;79;20124;-78
2021/06/27 12:18:58;;;;;;;;;;;;;;;31.47;44.67;99944.91;1804585;79;20172;-78
2021/06/27 12:21:25;;;;;;;;;;;;;;;31.46;44.89;99948.25;1806488;79;20154;-78
2021/06/27 12:23:56;;;;;;;;;;;;;;;31.52;44.75;99944.27;1806245;79;20154;-78
2021/06/27 12:26:22;;;;;;;;;;;;;;;31.53;44.42;99936.77;1805753;79;20172;-77
2021/06/27 12:28:55;;;;;;;;;;;;;;;31.52;44.47;99929.03;1805601;79;20192;-78
2021/06/27 12:31:32;;;;;;;;;;;;;;;31.52;44.30;99929.03;1804955;79;20176;-78
2021/06/27 12:34:04;;;;;;;;;;;;;;;31.51;44.52;99919.64;1805009;79;20406;-77
2021/06/27 12:36:33;;;;;;;;;;;;;;;31.51;44.50;99921.02;1805553;79;20319;-78
2021/06/27 12:39:05;;;;;;;;;;;;;;;31.50;44.76;99918.83;1805085;79;20169;-78
2021/06/27 12:41:34;;;;;;;;;;;;;;;31.52;44.62;99920.73;1804967;79;20196;-77
2021/06/27 12:44:06;;;;;;;;;;;;;;;31.56;44.67;99920.91;1803670;79;20394;-78
2021/06/27 12:46:40;;;;;;;;;;;;;;;31.58;44.74;99914.52;1801091;79;20162;-78
2021/06/27 12:49:23;;;;;;;;;;;;;;;31.60;44.78;99908.08;1799178;79;20194;-79
2021/06/27 12:51:51;;;;;;;;;;;;;;;31.64;44.75;99911.87;1800290;79;20449;-79